Time;durP1;ratioP1;P1;durP2;ratioP2;P2;SDS_P1;SDS_P2;PMS_P1;PMS_P2;Temp;Humidity;BMP_temperature;BMP_pressure;BME280_temperature;BME280_humidity;BME280_pressure;Samples;Min_cycle;Max_cycle;Signal;HPM_P1;HPM_P2
2022/08/02 00:02:03;;;;;;;2.33;1.80;;;16.40;99.90;;;;;;4975989;28;20210;-83
2022/08/02 00:04:30;;;;;;;3.10;2.13;;;16.30;99.90;;;;;;4977954;28;20226;-83
2022/08/02 00:06:56;;;;;;;3.10;2.10;;;16.30;99.90;;;;;;4978335;28;20200;-83
2022/08/02 00:09:21;;;;;;;2.80;1.67;;;16.30;99.90;;;;;;4977033;28;20177;-83
2022/08/02 00:11:47;;;;;;;3.53;1.70;;;16.30;99.90;;;;;;4977153;28;20181;-83
2022/08/02 00:14:13;;;;;;;3.10;2.00;;;16.20;99.90;;;;;;4975148;28;20194;-82
2022/08/02 00:16:38;;;;;;;2.53;1.70;;;16.20;99.90;;;;;;4975831;28;20212;-83
2022/08/02 00:19:04;;;;;;;2.80;1.80;;;16.20;99.90;;;;;;4977174;28;20302;-83
2022/08/02 00:21:30;;;;;;;4.03;1.93;;;16.10;99.90;;;;;;4975181;28;20249;-82
2022/08/02 00:23:56;;;;;;;2.90;1.70;;;16.10;99.90;;;;;;4977202;28;20259;-83
2022/08/02 00:26:22;;;;;;;2.07;1.77;;;16.10;99.90;;;;;;4975485;28;20204;-82
2022/08/02 00:28:47;;;;;;;2.27;2.07;;;16.20;99.90;;;;;;4976930;28;20234;-82
2022/08/02 00:31:13;;;;;;;3.30;1.93;;;16.20;99.90;;;;;;4975366;28;20222;-83
2022/08/02 00:33:39;;;;;;;3.30;2.23;;;16.10;99.90;;;;;;4975600;28;20187;-82
2022/08/02 00:36:05;;;;;;;2.73;2.10;;;16.10;99.90;;;;;;4975762;28;20207;-83
2022/08/02 00:38:30;;;;;;;2.37;1.90;;;16.10;99.90;;;;;;4975578;28;20184;-83
2022/08/02 00:40:56;;;;;;;2.77;2.00;;;16.10;99.90;;;;;;4977359;28;20247;-83
2022/08/02 00:43:22;;;;;;;2.53;2.07;;;16.10;99.90;;;;;;4975388;28;20183;-83
2022/08/02 00:45:47;;;;;;;4.00;2.27;;;16.10;99.90;;;;;;4976225;28;20188;-83
2022/08/02 00:48:13;;;;;;;3.33;1.63;;;16.20;99.90;;;;;;4975866;28;20664;-82
2022/08/02 00:50:39;;;;;;;2.30;1.80;;;16.10;99.90;;;;;;4974798;28;20272;-82
2022/08/02 00:53:07;;;;;;;3.50;2.00;;;16.00;99.90;;;;;;4976505;28;20230;-83
2022/08/02 00:55:34;;;;;;;3.60;1.87;;;16.10;99.90;;;;;;4975711;28;20188;-82
2022/08/02 00:57:59;;;;;;;3.67;2.23;;;16.10;99.90;;;;;;4975248;28;20296;-83
2022/08/02 01:00:25;;;;;;;5.40;1.80;;;16.10;99.90;;;;;;4976479;28;20599;-82
2022/08/02 01:02:51;;;;;;;2.10;1.90;;;16.00;99.90;;;;;;4976475;28;20219;-83
2022/08/02 01:05:17;;;;;;;6.27;1.80;;;16.10;99.90;;;;;;4976661;28;20530;-83
2022/08/02 01:07:43;;;;;;;4.60;2.10;;;16.10;99.90;;;;;;4975268;28;20203;-82
2022/08/02 01:10:09;;;;;;;2.43;2.17;;;16.00;99.90;;;;;;4981627;28;20176;-82
2022/08/02 01:12:34;;;;;;;2.57;2.13;;;16.00;99.90;;;;;;4975820;28;20173;-82
2022/08/02 01:15:04;;;;;;;3.00;2.07;;;16.00;99.90;;;;;;4976071;28;20665;-82
2022/08/02 01:18:06;;;;;;;3.70;2.10;;;16.00;99.90;;;;;;4975960;28;20192;-82
2022/08/02 01:21:05;;;;;;;2.57;2.20;;;16.10;99.90;;;;;;4974623;28;20736;-82
2022/08/02 01:23:31;;;;;;;3.80;2.17;;;16.10;99.90;;;;;;4975482;28;20155;-82
2022/08/02 01:26:18;;;;;;;2.23;1.97;;;16.10;99.90;;;;;;4974115;28;20180;-83
2022/08/02 01:28:56;;;;;;;2.63;2.20;;;16.10;99.90;;;;;;4974251;28;20176;-82
2022/08/02 01:31:30;;;;;;;2.33;2.03;;;16.10;99.90;;;;;;4974201;28;20236;-82
2022/08/02 01:34:00;;;;;;;2.27;1.97;;;16.00;99.90;;;;;;4975242;28;20152;-82
2022/08/02 01:36:31;;;;;;;4.43;2.00;;;16.10;99.90;;;;;;4973989;28;20241;-83
2022/08/02 01:38:59;;;;;;;4.30;2.10;;;16.00;99.90;;;;;;4973995;28;20172;-83
2022/08/02 01:41:27;;;;;;;1.90;1.80;;;16.00;99.90;;;;;;4974994;28;20244;-82
2022/08/02 01:44:00;;;;;;;2.13;1.93;;;16.00;99.90;;;;;;4973655;28;20716;-82
2022/08/02 01:46:29;;;;;;;2.43;2.10;;;16.00;99.90;;;;;;4975124;28;20665;-82
2022/08/02 01:48:56;;;;;;;2.20;1.77;;;16.00;99.90;;;;;;4972807;28;20264;-82
2022/08/02 01:54:14;;;;;;;2.77;2.03;;;16.00;99.90;;;;;;4975084;28;20650;-83
2022/08/02 01:56:41;;;;;;;1.90;1.80;;;16.00;99.90;;;;;;4974125;28;20202;-82
2022/08/02 01:59:12;;;;;;;2.77;1.83;;;16.10;99.90;;;;;;4974935;28;20239;-82
2022/08/02 02:01:39;;;;;;;2.13;1.93;;;16.10;99.90;;;;;;4973824;28;20204;-82
2022/08/02 02:04:07;;;;;;;3.27;2.00;;;16.10;99.90;;;;;;4974713;28;20179;-82
2022/08/02 02:06:35;;;;;;;2.30;1.63;;;16.10;99.90;;;;;;4975182;28;20238;-82
2022/08/02 02:09:02;;;;;;;4.33;1.87;;;16.10;99.90;;;;;;4974697;28;20686;-82
2022/08/02 02:11:28;;;;;;;2.20;1.80;;;16.00;99.90;;;;;;4973331;28;20188;-82
2022/08/02 02:13:57;;;;;;;3.40;1.90;;;16.00;99.90;;;;;;4974989;28;20638;-83
2022/08/02 02:16:23;;;;;;;5.70;2.00;;;16.00;99.90;;;;;;4974073;28;20263;-83
2022/08/02 02:18:51;;;;;;;1.70;1.53;;;16.00;99.90;;;;;;4973710;28;20655;-83
2022/08/02 02:21:17;;;;;;;3.60;1.90;;;16.10;99.90;;;;;;4975539;28;20685;-82
2022/08/02 02:23:43;;;;;;;2.20;1.60;;;16.10;99.90;;;;;;4973829;28;20275;-83
2022/08/02 02:26:12;;;;;;;2.50;1.77;;;16.10;99.90;;;;;;4975297;28;20222;-82
2022/08/02 02:28:39;;;;;;;1.67;1.43;;;16.10;99.90;;;;;;4973554;28;20177;-83
2022/08/02 02:31:17;;;;;;;2.63;1.90;;;16.10;99.90;;;;;;4974515;28;20184;-83
2022/08/02 02:33:50;;;;;;;2.77;1.57;;;16.10;99.90;;;;;;4975147;28;20594;-83
2022/08/02 02:36:21;;;;;;;3.47;1.60;;;16.00;99.90;;;;;;4975531;28;20247;-83
2022/08/02 02:38:49;;;;;;;3.13;2.20;;;16.00;99.90;;;;;;4974855;28;20177;-83
2022/08/02 02:41:17;;;;;;;2.70;1.80;;;16.00;99.90;;;;;;4974293;28;20678;-83
2022/08/02 02:43:43;;;;;;;3.37;1.57;;;16.00;99.90;;;;;;4982195;28;20180;-82
2022/08/02 02:46:11;;;;;;;2.37;1.80;;;16.10;99.90;;;;;;4974663;28;20207;-83
2022/08/02 02:48:37;;;;;;;2.20;1.70;;;16.10;99.90;;;;;;4974200;28;20192;-83
2022/08/02 02:51:04;;;;;;;1.87;1.70;;;16.10;99.90;;;;;;4973253;28;20189;-83
2022/08/02 02:53:30;;;;;;;1.80;1.60;;;16.10;99.90;;;;;;4973191;28;20180;-83
2022/08/02 02:55:56;;;;;;;2.20;2.00;;;16.10;99.90;;;;;;4972636;28;20728;-82
2022/08/02 02:58:23;;;;;;;2.10;1.50;;;16.00;99.90;;;;;;4973978;28;20711;-83
2022/08/02 03:03:36;;;;;;;3.23;1.70;;;16.00;99.90;;;;;;4978615;28;20183;-82
2022/08/02 03:06:02;;;;;;;2.10;1.70;;;16.00;99.90;;;;;;4975962;28;20180;-82
2022/08/02 03:08:28;;;;;;;3.73;1.83;;;16.00;99.90;;;;;;4976418;28;20241;-82
2022/08/02 03:10:54;;;;;;;2.97;1.80;;;16.00;99.90;;;;;;4975990;28;20265;-82
2022/08/02 03:13:20;;;;;;;5.23;2.00;;;15.90;99.90;;;;;;4975933;28;20204;-82
2022/08/02 03:15:46;;;;;;;3.07;1.53;;;15.90;99.90;;;;;;4975989;28;20176;-82
2022/08/02 03:18:33;;;;;;;2.33;1.50;;;15.90;99.90;;;;;;4975384;28;20196;-83
2022/08/02 03:21:07;;;;;;;1.73;1.63;;;15.90;99.90;;;;;;4969152;28;20208;-83
2022/08/02 03:23:34;;;;;;;3.30;1.80;;;15.80;99.90;;;;;;4977317;28;20243;-83
2022/08/02 03:26:00;;;;;;;3.47;1.57;;;15.90;99.90;;;;;;4977110;28;20165;-83
2022/08/02 03:28:26;;;;;;;2.53;1.67;;;15.80;99.90;;;;;;4975623;28;20187;-83
2022/08/02 03:30:52;;;;;;;1.40;1.10;;;15.80;99.90;;;;;;4977429;28;20200;-83
2022/08/02 03:33:20;;;;;;;1.30;1.20;;;15.80;99.90;;;;;;4975802;28;20191;-83
2022/08/02 03:35:48;;;;;;;4.40;1.30;;;15.80;99.90;;;;;;4976008;28;20180;-82
2022/08/02 03:38:16;;;;;;;1.43;1.20;;;15.70;99.90;;;;;;4976952;28;20668;-83
2022/08/02 03:40:43;;;;;;;2.07;1.20;;;15.70;99.90;;;;;;4975520;28;20260;-83
2022/08/02 03:43:10;;;;;;;2.43;1.20;;;15.60;99.90;;;;;;4975816;28;20213;-83
2022/08/02 03:45:40;;;;;;;1.77;1.40;;;15.60;99.90;;;;;;4976107;28;20657;-83
2022/08/02 03:48:07;;;;;;;2.13;1.27;;;15.60;99.90;;;;;;4975664;28;20200;-83
2022/08/02 03:50:35;;;;;;;1.57;1.30;;;15.60;99.90;;;;;;4975962;28;20177;-83
2022/08/02 03:53:01;;;;;;;2.30;1.10;;;15.50;99.90;;;;;;4976160;28;20174;-83
2022/08/02 03:55:27;;;;;;;2.90;1.43;;;15.50;99.90;;;;;;4977556;28;20177;-83
2022/08/02 03:57:53;;;;;;;2.73;1.23;;;15.50;99.90;;;;;;4977158;28;20196;-83
2022/08/02 04:00:21;;;;;;;3.03;1.60;;;15.50;99.90;;;;;;4975886;28;20638;-83
2022/08/02 04:02:47;;;;;;;2.50;1.13;;;15.50;99.90;;;;;;4975727;28;20232;-83
2022/08/02 04:05:15;;;;;;;1.73;1.23;;;15.50;99.90;;;;;;4977788;28;20662;-83
2022/08/02 04:07:42;;;;;;;2.17;1.33;;;15.50;99.90;;;;;;4975991;28;20545;-83
2022/08/02 04:10:09;;;;;;;2.87;1.30;;;15.50;99.90;;;;;;4977327;28;20582;-83
2022/08/02 04:12:35;;;;;;;4.07;1.60;;;15.50;99.90;;;;;;4976848;28;20211;-83
2022/08/02 04:15:03;;;;;;;1.77;1.63;;;15.50;99.90;;;;;;4977287;28;20176;-83
2022/08/02 04:17:32;;;;;;;2.20;1.30;;;15.50;99.90;;;;;;4982307;28;20207;-83
2022/08/02 04:20:05;;;;;;;3.07;1.60;;;15.50;99.90;;;;;;4979069;28;20562;-82
2022/08/02 04:22:40;;;;;;;2.50;1.27;;;15.50;99.90;;;;;;4977467;28;20192;-83
2022/08/02 04:25:09;;;;;;;1.63;1.40;;;15.50;99.90;;;;;;4975672;28;20640;-83
2022/08/02 04:27:36;;;;;;;1.57;1.40;;;15.50;99.90;;;;;;4976460;28;20197;-83
2022/08/02 04:30:04;;;;;;;1.70;1.47;;;15.50;99.90;;;;;;4975382;28;20267;-83
2022/08/02 04:32:31;;;;;;;2.37;1.50;;;15.50;99.90;;;;;;4975309;28;20177;-83
2022/08/02 04:34:57;;;;;;;1.90;1.50;;;15.60;99.90;;;;;;4976074;28;20181;-83
2022/08/02 04:37:23;;;;;;;1.37;1.27;;;15.50;99.90;;;;;;4975791;28;20208;-83
2022/08/02 04:39:49;;;;;;;1.87;1.40;;;15.50;99.90;;;;;;4976669;28;20203;-83
2022/08/02 04:42:23;;;;;;;3.00;1.40;;;15.60;99.90;;;;;;4975639;28;20217;-83
2022/08/02 04:44:50;;;;;;;1.50;1.33;;;15.50;99.90;;;;;;4975175;28;20176;-83
2022/08/02 04:47:15;;;;;;;1.90;1.50;;;15.50;99.90;;;;;;4975220;28;20208;-83
2022/08/02 04:49:41;;;;;;;2.13;1.37;;;15.50;99.90;;;;;;4975629;28;20172;-83
2022/08/02 04:52:07;;;;;;;2.30;1.70;;;15.50;99.90;;;;;;4976856;28;20172;-83
2022/08/02 04:54:33;;;;;;;2.00;1.77;;;15.50;99.90;;;;;;4975168;28;20181;-83
2022/08/02 04:56:58;;;;;;;2.00;1.50;;;15.60;99.90;;;;;;4975049;28;20204;-83
2022/08/02 04:59:24;;;;;;;2.47;1.60;;;15.50;99.90;;;;;;4975110;28;20204;-83
2022/08/02 05:01:50;;;;;;;2.47;1.63;;;15.60;99.90;;;;;;4976337;28;20207;-83
2022/08/02 05:04:15;;;;;;;1.93;1.60;;;15.70;99.90;;;;;;4976764;28;20172;-83
2022/08/02 05:06:41;;;;;;;4.30;2.00;;;15.80;99.90;;;;;;4976419;28;20674;-82
2022/08/02 05:09:07;;;;;;;2.73;1.70;;;15.80;99.90;;;;;;4976939;28;20582;-82
2022/08/02 05:11:33;;;;;;;6.87;1.47;;;15.80;99.90;;;;;;4976120;28;20180;-83
2022/08/02 05:13:59;;;;;;;2.53;1.40;;;15.80;99.90;;;;;;4975695;28;20181;-83
2022/08/02 05:16:25;;;;;;;2.30;1.40;;;15.80;99.90;;;;;;4975616;28;20208;-83
2022/08/02 05:18:51;;;;;;;2.23;1.50;;;15.90;99.90;;;;;;4976167;28;20181;-82
2022/08/02 05:21:17;;;;;;;1.60;1.27;;;16.00;99.90;;;;;;4974726;28;20207;-82
2022/08/02 05:23:43;;;;;;;2.43;1.63;;;16.00;99.90;;;;;;4975643;28;20248;-82
2022/08/02 05:26:08;;;;;;;3.73;1.33;;;16.00;99.90;;;;;;4975750;28;20613;-83
2022/08/02 05:28:34;;;;;;;3.07;1.60;;;16.10;99.90;;;;;;4974330;28;20177;-82
2022/08/02 05:31:00;;;;;;;5.20;1.70;;;16.10;99.90;;;;;;4975771;28;20650;-82
2022/08/02 05:33:26;;;;;;;1.93;1.50;;;16.20;99.90;;;;;;4974531;28;20184;-82
2022/08/02 05:35:52;;;;;;;2.13;1.50;;;16.20;99.90;;;;;;4973968;28;20206;-82
2022/08/02 05:38:17;;;;;;;2.57;1.43;;;16.20;99.90;;;;;;4973897;28;20184;-83
2022/08/02 05:40:43;;;;;;;5.27;1.90;;;16.30;99.90;;;;;;4974214;28;20192;-83
2022/08/02 05:43:14;;;;;;;6.00;1.47;;;16.30;99.90;;;;;;4974672;28;20218;-83
2022/08/02 05:45:40;;;;;;;3.60;1.43;;;16.40;99.90;;;;;;4974426;28;20177;-83
2022/08/02 05:48:07;;;;;;;3.97;1.30;;;16.40;99.90;;;;;;4975307;28;20557;-82
2022/08/02 05:50:38;;;;;;;2.50;1.60;;;16.40;99.90;;;;;;4959838;28;20214;-81
2022/08/02 05:53:18;;;;;;;1.83;1.50;;;16.50;99.90;;;;;;4978816;28;20180;-82
2022/08/02 05:55:52;;;;;;;2.23;1.50;;;16.50;99.90;;;;;;4975765;28;20618;-82
2022/08/02 05:58:29;;;;;;;1.70;1.37;;;16.50;99.90;;;;;;4976541;28;20258;-82
2022/08/02 06:00:57;;;;;;;2.27;1.33;;;16.60;99.90;;;;;;4986991;28;20214;-84
2022/08/02 06:03:51;;;;;;;1.23;1.10;;;16.60;99.90;;;;;;4994039;28;20180;-82
2022/08/02 06:06:22;;;;;;;1.63;1.13;;;16.70;99.90;;;;;;4980207;28;20658;-82
2022/08/02 06:08:52;;;;;;;1.63;1.20;;;16.70;99.90;;;;;;4984488;28;20355;-82
2022/08/02 06:11:22;;;;;;;2.67;1.10;;;16.70;99.90;;;;;;4995916;28;20258;-83
2022/08/02 06:13:49;;;;;;;2.07;1.27;;;16.90;99.90;;;;;;4995514;28;20169;-82
2022/08/02 06:16:15;;;;;;;1.13;0.90;;;16.90;99.90;;;;;;4994698;28;20231;-82
2022/08/02 06:18:42;;;;;;;1.87;1.07;;;17.00;99.90;;;;;;4994664;28;20182;-82
2022/08/02 06:21:09;;;;;;;1.30;1.10;;;17.10;99.90;;;;;;4995483;28;20207;-82
2022/08/02 06:23:41;;;;;;;1.07;0.97;;;17.10;99.90;;;;;;4993883;28;20519;-82
2022/08/02 06:26:08;;;;;;;1.00;0.90;;;17.20;99.90;;;;;;5012843;28;20189;-83
2022/08/02 06:28:37;;;;;;;2.90;1.23;;;17.30;99.90;;;;;;5014235;28;20194;-80
2022/08/02 06:31:05;;;;;;;2.60;1.53;;;17.40;99.90;;;;;;5014443;28;20182;-82
2022/08/02 06:33:31;;;;;;;1.67;1.10;;;17.50;99.90;;;;;;5015003;28;20188;-81
2022/08/02 06:36:13;;;;;;;1.40;1.20;;;17.50;99.90;;;;;;5016104;28;20177;-81
2022/08/02 06:39:26;;;;;;;1.50;1.10;;;17.60;99.90;;;;;;5017699;28;20173;-82
2022/08/02 06:41:56;;;;;;;2.63;1.23;;;17.60;99.90;;;;;;5031212;28;20722;-81
2022/08/02 06:44:22;;;;;;;3.40;1.10;;;17.60;99.90;;;;;;4995746;28;20596;-81
2022/08/02 06:46:47;;;;;;;1.60;1.20;;;17.70;99.90;;;;;;4995426;28;20209;-81
2022/08/02 06:49:13;;;;;;;1.30;1.07;;;17.80;99.90;;;;;;4996895;28;20186;-81
2022/08/02 06:51:39;;;;;;;2.67;1.10;;;17.80;99.90;;;;;;4995452;28;20194;-81
2022/08/02 06:54:04;;;;;;;2.10;0.97;;;17.90;99.90;;;;;;4994997;28;20181;-80
2022/08/02 06:56:30;;;;;;;1.63;1.03;;;18.00;99.90;;;;;;4994904;28;20201;-81
2022/08/02 06:58:56;;;;;;;1.87;1.10;;;18.10;99.90;;;;;;4994914;28;20186;-81
2022/08/02 07:01:21;;;;;;;1.83;1.03;;;18.20;99.90;;;;;;4996532;28;20242;-82
2022/08/02 07:03:47;;;;;;;0.63;0.63;;;18.30;99.90;;;;;;4996579;28;20231;-82
2022/08/02 07:06:13;;;;;;;2.43;1.17;;;18.30;99.90;;;;;;4996334;28;20195;-81
2022/08/02 07:08:39;;;;;;;2.97;0.93;;;18.40;99.90;;;;;;4996139;28;20199;-82
2022/08/02 07:11:05;;;;;;;1.50;1.07;;;18.50;99.90;;;;;;4996337;28;20205;-81
2022/08/02 07:13:31;;;;;;;1.73;0.80;;;18.60;99.90;;;;;;4995138;28;20181;-81
2022/08/02 07:15:57;;;;;;;1.40;0.80;;;18.60;99.90;;;;;;4997266;28;20189;-81
2022/08/02 07:18:24;;;;;;;1.27;1.00;;;18.70;99.90;;;;;;4996438;28;20172;-82
2022/08/02 07:20:50;;;;;;;3.00;0.80;;;18.80;99.90;;;;;;4995032;28;20325;-82
2022/08/02 07:23:17;;;;;;;1.90;0.97;;;18.90;99.90;;;;;;4997083;28;20200;-81
2022/08/02 07:25:43;;;;;;;1.57;1.07;;;19.00;99.90;;;;;;4996056;28;20204;-81
2022/08/02 07:28:09;;;;;;;1.00;0.83;;;19.10;99.90;;;;;;4995650;28;20204;-81
2022/08/02 07:30:36;;;;;;;1.83;0.93;;;19.10;99.90;;;;;;4994784;28;20649;-82
2022/08/02 07:33:02;;;;;;;2.03;0.90;;;19.20;99.90;;;;;;4995883;28;20175;-81
2022/08/02 07:35:28;;;;;;;1.20;1.00;;;19.20;99.90;;;;;;4995932;28;20176;-82
2022/08/02 07:37:54;;;;;;;0.70;0.70;;;19.30;99.90;;;;;;4995641;28;20199;-81
2022/08/02 07:40:20;;;;;;;1.63;1.10;;;19.40;99.90;;;;;;4994078;28;20196;-82
2022/08/02 07:42:51;;;;;;;2.47;1.07;;;19.50;99.90;;;;;;4994474;28;20747;-82
2022/08/02 07:45:18;;;;;;;2.40;0.90;;;19.60;99.90;;;;;;4994215;28;20264;-82
2022/08/02 07:47:44;;;;;;;1.10;0.80;;;19.60;99.90;;;;;;4994874;28;20192;-82
2022/08/02 07:50:11;;;;;;;2.97;1.30;;;19.80;99.90;;;;;;4995646;28;20329;-82
2022/08/02 07:52:37;;;;;;;1.10;1.00;;;19.90;99.90;;;;;;4996059;28;20180;-82
2022/08/02 07:55:04;;;;;;;1.10;0.90;;;19.90;99.90;;;;;;4996265;28;20184;-82
2022/08/02 07:57:30;;;;;;;1.77;1.10;;;20.10;99.90;;;;;;4994704;28;20291;-82
2022/08/02 07:59:55;;;;;;;1.77;1.17;;;20.10;99.90;;;;;;4995161;28;20211;-82
2022/08/02 08:02:23;;;;;;;1.10;1.00;;;20.20;99.90;;;;;;4994973;28;20212;-82
2022/08/02 08:04:51;;;;;;;1.53;1.00;;;20.30;99.90;;;;;;4994385;28;20213;-81
2022/08/02 08:07:17;;;;;;;4.43;0.90;;;20.50;99.90;;;;;;4994993;28;20196;-82
2022/08/02 08:09:43;;;;;;;1.00;0.90;;;20.60;99.90;;;;;;4993615;28;20182;-82
2022/08/02 08:12:10;;;;;;;1.33;1.10;;;20.60;99.90;;;;;;4994082;28;20180;-82
2022/08/02 08:14:37;;;;;;;2.97;1.27;;;20.60;99.90;;;;;;4993852;28;20184;-82
2022/08/02 08:17:04;;;;;;;1.40;1.30;;;20.70;99.90;;;;;;4995202;28;20200;-84
2022/08/02 08:19:30;;;;;;;1.47;1.20;;;20.80;99.90;;;;;;4993766;28;20205;-82
2022/08/02 08:21:58;;;;;;;1.20;1.07;;;21.00;99.90;;;;;;4994917;28;20282;-82
2022/08/02 08:24:24;;;;;;;2.17;1.43;;;21.30;99.90;;;;;;4993582;28;20183;-82
2022/08/02 08:26:50;;;;;;;1.20;1.10;;;21.60;99.90;;;;;;4993407;28;20195;-82
2022/08/02 08:29:15;;;;;;;0.97;0.87;;;21.90;99.90;;;;;;4994854;28;20501;-82
2022/08/02 08:31:41;;;;;;;2.23;1.30;;;22.10;99.90;;;;;;4994665;28;20175;-82
2022/08/02 08:34:07;;;;;;;1.30;1.20;;;22.50;99.90;;;;;;4994699;28;20203;-82
2022/08/02 08:36:32;;;;;;;1.20;1.00;;;22.70;99.90;;;;;;4993967;28;20196;-82
2022/08/02 08:38:59;;;;;;;1.90;1.23;;;22.80;99.90;;;;;;4993248;28;20191;-82
2022/08/02 08:41:25;;;;;;;1.30;1.13;;;23.00;99.90;;;;;;4993420;28;20200;-82
2022/08/02 08:43:50;;;;;;;1.60;1.30;;;23.10;99.90;;;;;;4994425;28;20179;-82
2022/08/02 08:46:26;;;;;;;1.20;1.10;;;23.10;99.90;;;;;;4994890;28;20283;-82
2022/08/02 08:49:00;;;;;;;1.57;1.47;;;23.20;99.90;;;;;;4994735;28;20183;-82
2022/08/02 08:51:31;;;;;;;1.77;1.30;;;23.30;99.90;;;;;;4994878;28;20180;-81
2022/08/02 08:54:03;;;;;;;2.13;1.23;;;23.50;99.90;;;;;;4993307;28;20181;-82
2022/08/02 08:56:33;;;;;;;4.80;1.27;;;23.30;99.90;;;;;;4993274;28;20749;-82
2022/08/02 08:58:59;;;;;;;1.70;1.30;;;23.40;99.90;;;;;;4993061;28;20164;-82
2022/08/02 09:01:25;;;;;;;1.83;1.00;;;23.60;99.90;;;;;;4992944;28;20673;-82
2022/08/02 09:03:51;;;;;;;1.30;1.20;;;23.80;99.90;;;;;;4992661;28;20178;-82
2022/08/02 09:06:17;;;;;;;1.50;1.30;;;24.00;99.90;;;;;;4994030;28;20196;-82
2022/08/02 09:08:43;;;;;;;0.97;0.97;;;24.20;99.90;;;;;;4993921;28;20172;-82
2022/08/02 09:11:14;;;;;;;1.60;1.13;;;24.40;99.90;;;;;;4992935;28;20210;-81
2022/08/02 09:13:58;;;;;;;1.50;1.20;;;24.60;99.90;;;;;;4993088;28;20182;-82
2022/08/02 09:16:34;;;;;;;1.30;1.20;;;24.90;99.90;;;;;;4994256;28;20675;-82
2022/08/02 09:19:16;;;;;;;2.13;1.20;;;25.20;99.90;;;;;;4994719;28;20164;-82
2022/08/02 09:21:42;;;;;;;1.83;1.20;;;24.90;99.90;;;;;;4992995;28;20203;-82
2022/08/02 09:24:23;;;;;;;2.07;1.20;;;24.30;99.90;;;;;;4993062;28;20184;-82
2022/08/02 09:26:50;;;;;;;1.77;1.17;;;24.20;99.90;;;;;;4992671;28;20362;-82
2022/08/02 09:29:18;;;;;;;2.10;1.10;;;23.80;99.90;;;;;;4992966;28;20175;-82
2022/08/02 09:31:44;;;;;;;2.20;1.43;;;23.50;99.90;;;;;;4992746;28;20187;-82
2022/08/02 09:34:10;;;;;;;1.53;1.43;;;23.40;99.90;;;;;;4993280;28;20638;-83
2022/08/02 09:36:44;;;;;;;1.60;1.30;;;23.10;99.90;;;;;;4995256;28;20207;-83
2022/08/02 09:39:15;;;;;;;1.30;1.20;;;23.00;99.90;;;;;;4992903;28;20656;-83
2022/08/02 09:41:44;;;;;;;1.63;1.50;;;23.30;99.90;;;;;;4992712;28;20199;-83
2022/08/02 09:44:12;;;;;;;1.57;1.40;;;23.60;99.90;;;;;;4993563;28;20186;-82
2022/08/02 09:46:39;;;;;;;1.87;1.50;;;23.50;99.90;;;;;;4993953;28;20199;-82
2022/08/02 09:49:08;;;;;;;1.27;1.17;;;23.30;99.90;;;;;;4992589;28;20183;-82
2022/08/02 09:51:39;;;;;;;1.43;1.20;;;23.30;99.90;;;;;;4992617;28;20527;-82
2022/08/02 09:54:13;;;;;;;1.73;1.60;;;23.70;99.90;;;;;;4992434;28;20185;-81
2022/08/02 09:56:44;;;;;;;1.93;1.03;;;24.40;99.90;;;;;;4976594;28;20207;-82
2022/08/02 09:59:10;;;;;;;1.93;1.20;;;25.20;99.90;;;;;;4993663;28;20169;-82
2022/08/02 10:01:37;;;;;;;1.50;1.30;;;25.80;99.90;;;;;;4992511;28;20205;-82
2022/08/02 10:04:10;;;;;;;1.90;1.10;;;26.30;99.90;;;;;;4992718;28;20180;-81
2022/08/02 10:06:40;;;;;;;1.30;1.20;;;26.50;99.90;;;;;;4992779;28;20230;-82
2022/08/02 10:09:08;;;;;;;1.30;1.20;;;26.60;99.90;;;;;;4994092;28;20262;-79
2022/08/02 10:11:34;;;;;;;1.33;0.90;;;26.80;99.90;;;;;;4997663;28;20182;-81
2022/08/02 10:14:04;;;;;;;1.27;1.00;;;27.00;99.90;;;;;;4997414;28;20178;-82
2022/08/02 10:16:31;;;;;;;0.90;0.90;;;27.00;99.90;;;;;;4995978;28;20682;-79
2022/08/02 10:18:58;;;;;;;2.23;1.00;;;27.20;99.90;;;;;;4997385;28;20291;-80
2022/08/02 10:21:29;;;;;;;2.03;1.00;;;27.50;99.90;;;;;;4997672;28;20282;-80
2022/08/02 10:24:11;;;;;;;1.13;1.03;;;27.90;99.90;;;;;;4997974;28;20164;-80
2022/08/02 10:26:43;;;;;;;1.50;1.13;;;27.90;99.90;;;;;;4997704;28;20201;-81
2022/08/02 10:29:09;;;;;;;1.50;1.40;;;27.90;99.90;;;;;;4998555;28;20535;-82
2022/08/02 10:31:54;;;;;;;1.43;1.17;;;27.60;99.90;;;;;;4998998;28;20181;-82
2022/08/02 10:34:26;;;;;;;1.37;1.10;;;26.80;99.90;;;;;;4998366;28;20186;-80
2022/08/02 10:36:52;;;;;;;0.97;0.97;;;26.20;99.90;;;;;;4984757;28;20261;-83
2022/08/02 10:39:18;;;;;;;2.70;1.10;;;25.90;99.90;;;;;;4980472;28;20196;-82
2022/08/02 10:41:50;;;;;;;1.03;0.90;;;26.20;99.90;;;;;;4978865;28;20633;-82
2022/08/02 10:44:30;;;;;;;1.30;1.00;;;26.70;99.90;;;;;;4980165;28;20344;-82
2022/08/02 10:47:18;;;;;;;1.27;0.90;;;27.40;99.90;;;;;;4980058;28;20518;-82
2022/08/02 10:49:50;;;;;;;0.97;0.83;;;27.90;99.90;;;;;;4980204;28;20202;-83
2022/08/02 10:52:16;;;;;;;1.27;0.70;;;28.30;99.90;;;;;;4978692;28;20265;-82
2022/08/02 10:54:48;;;;;;;0.97;0.90;;;28.50;99.90;;;;;;4979698;28;20219;-82
2022/08/02 10:57:17;;;;;;;3.13;1.03;;;28.50;99.90;;;;;;4977640;28;20236;-82
2022/08/02 10:59:43;;;;;;;1.07;0.97;;;28.00;99.90;;;;;;4979289;28;20177;-82
2022/08/02 11:02:10;;;;;;;1.47;1.10;;;27.10;99.90;;;;;;4978476;28;20200;-82
2022/08/02 11:04:35;;;;;;;3.20;0.90;;;26.80;99.90;;;;;;4979009;28;20169;-82
2022/08/02 11:07:13;;;;;;;1.23;0.80;;;27.20;99.90;;;;;;4977914;28;20199;-82
2022/08/02 11:09:40;;;;;;;0.90;0.90;;;27.80;99.90;;;;;;4979344;28;20256;-82
2022/08/02 11:12:14;;;;;;;5.47;1.20;;;28.40;99.90;;;;;;4978984;28;20543;-82
2022/08/02 11:14:43;;;;;;;2.70;1.07;;;28.80;99.90;;;;;;4978886;28;20193;-82
2022/08/02 11:17:14;;;;;;;1.83;0.90;;;29.00;99.90;;;;;;4978417;28;20200;-80
2022/08/02 11:20:11;;;;;;;1.70;0.80;;;29.40;99.90;;;;;;4979264;28;20181;-82
2022/08/02 11:22:41;;;;;;;1.07;0.97;;;29.80;99.90;;;;;;4976654;28;20204;-80
2022/08/02 11:25:21;;;;;;;2.90;1.20;;;29.90;99.90;;;;;;4979033;28;20759;-82
2022/08/02 11:27:58;;;;;;;1.03;0.70;;;30.10;99.90;;;;;;4975902;28;20571;-80
2022/08/02 11:30:25;;;;;;;1.17;1.00;;;30.30;99.90;;;;;;4977666;28;20542;-82
2022/08/02 11:32:58;;;;;;;1.37;0.90;;;30.10;99.90;;;;;;4976867;28;20169;-82
2022/08/02 11:35:32;;;;;;;2.17;1.33;;;27.80;99.90;;;;;;4976984;28;20206;-83
2022/08/02 11:38:10;;;;;;;1.60;1.10;;;27.70;99.90;;;;;;4976863;28;20254;-83
2022/08/02 11:40:37;;;;;;;1.07;1.00;;;27.10;99.90;;;;;;4976940;28;20193;-82
2022/08/02 11:43:03;;;;;;;1.30;1.20;;;26.60;99.90;;;;;;4978022;28;20207;-82
2022/08/02 11:45:28;;;;;;;1.27;1.03;;;26.20;99.90;;;;;;4976913;28;20180;-83
2022/08/02 11:47:54;;;;;;;1.27;1.17;;;25.90;99.90;;;;;;4976894;28;20209;-82
2022/08/02 11:50:24;;;;;;;2.00;1.10;;;26.20;99.90;;;;;;4977267;28;20178;-83
2022/08/02 11:52:52;;;;;;;2.53;1.07;;;27.00;99.90;;;;;;4978605;28;20220;-83
2022/08/02 11:55:25;;;;;;;1.03;0.90;;;27.50;99.90;;;;;;4977126;28;20183;-83
2022/08/02 11:58:00;;;;;;;1.10;1.00;;;27.80;99.90;;;;;;4977626;28;20195;-83
2022/08/02 12:00:26;;;;;;;1.93;0.80;;;28.10;99.90;;;;;;4978958;28;20163;-83
2022/08/02 12:02:52;;;;;;;1.13;1.03;;;28.70;99.90;;;;;;4976725;28;20206;-83
2022/08/02 12:05:21;;;;;;;2.40;0.90;;;29.10;99.90;;;;;;4978578;28;20179;-83
2022/08/02 12:07:47;;;;;;;0.80;0.80;;;;;;;;;;4976842;28;20203;-83
2022/08/02 12:10:14;;;;;;;2.50;1.07;;;29.90;99.90;;;;;;4978273;28;20206;-83
2022/08/02 12:12:55;;;;;;;1.10;1.00;;;30.50;99.90;;;;;;4978530;28;20183;-83
2022/08/02 12:15:39;;;;;;;2.17;1.20;;;29.80;99.90;;;;;;4977407;28;20190;-83
2022/08/02 12:21:02;;;;;;;1.20;1.10;;;29.40;99.90;;;;;;4978176;28;20197;-83
2022/08/02 12:23:28;;;;;;;1.17;1.07;;;29.40;99.90;;;;;;4977336;28;20185;-83
2022/08/02 12:26:08;;;;;;;1.17;1.07;;;29.10;99.90;;;;;;4979030;28;20537;-83
2022/08/02 12:28:39;;;;;;;1.93;1.10;;;29.90;99.90;;;;;;4977690;28;20169;-83
2022/08/02 12:31:10;;;;;;;1.63;1.20;;;29.80;99.90;;;;;;4978471;28;20171;-82
2022/08/02 12:33:55;;;;;;;2.20;0.90;;;30.30;99.90;;;;;;4978271;28;20250;-82
2022/08/02 12:36:26;;;;;;;1.30;1.20;;;30.20;99.90;;;;;;4976835;28;20206;-83
2022/08/02 12:39:00;;;;;;;1.67;1.20;;;29.80;99.90;;;;;;4978144;28;20516;-83
2022/08/02 12:41:28;;;;;;;3.43;1.10;;;29.20;99.90;;;;;;4978547;28;20207;-82
2022/08/02 12:43:55;;;;;;;0.90;0.90;;;28.30;99.90;;;;;;4976841;28;20184;-82
2022/08/02 12:46:22;;;;;;;1.40;1.30;;;27.80;99.90;;;;;;4977872;28;20566;-82
2022/08/02 12:48:50;;;;;;;1.27;1.00;;;27.90;99.90;;;;;;4976018;28;20183;-82
2022/08/02 12:51:19;;;;;;;1.50;0.90;;;27.80;99.90;;;;;;4977576;28;20190;-81
2022/08/02 12:53:45;;;;;;;1.40;1.00;;;27.70;99.90;;;;;;4975725;28;20180;-81
2022/08/02 12:56:11;;;;;;;1.20;1.10;;;29.10;99.90;;;;;;4975583;28;20207;-81
2022/08/02 12:58:50;;;;;;;1.30;0.97;;;29.20;99.90;;;;;;4973946;28;20597;-82
2022/08/02 13:01:21;;;;;;;3.00;1.10;;;30.00;99.90;;;;;;4974175;28;20235;-82
2022/08/02 13:03:47;;;;;;;1.87;1.20;;;30.70;99.90;;;;;;4974530;28;20187;-82
2022/08/02 13:06:13;;;;;;;1.40;1.00;;;29.80;99.90;;;;;;4975041;28;20538;-81